createdAt,value
2018-01-31T01:52:21.162Z,1009.20
2018-01-31T01:53:17.559Z,1009.17
2018-01-31T01:55:10.530Z,1009.07
2018-01-31T01:56:10.596Z,1009.08
2018-01-31T01:58:03.585Z,1008.99
2018-01-31T01:59:03.618Z,1008.96
2018-01-31T02:00:56.596Z,1008.84
2018-01-31T02:01:56.652Z,1008.81
2018-01-31T02:03:49.648Z,1008.74
2018-01-31T02:04:49.685Z,1008.65
2018-01-31T02:06:42.679Z,1008.59
2018-01-31T02:07:42.713Z,1008.55
2018-01-31T02:09:35.696Z,1008.51
2018-01-31T02:10:35.753Z,1008.42
2018-01-31T02:12:28.748Z,1008.41
2018-01-31T02:13:28.782Z,1008.38
2018-01-31T02:15:21.760Z,1008.31
2018-01-31T02:16:21.816Z,1008.29
2018-01-31T02:18:14.810Z,1008.18
2018-01-31T02:19:14.846Z,1008.16
2018-01-31T02:21:07.822Z,1008.16
2018-01-31T02:22:07.878Z,1008.11
2018-01-31T02:24:00.876Z,1008.02
2018-01-31T02:25:00.908Z,1008.00
2018-01-31T02:26:53.903Z,1007.90
2018-01-31T02:27:53.938Z,1007.85
2018-01-31T02:29:46.913Z,1007.82
2018-01-31T02:30:46.969Z,1007.78
2018-01-31T02:32:39.975Z,1007.75
2018-01-31T02:33:40.012Z,1007.71
2018-01-31T02:35:32.985Z,1007.65
2018-01-31T02:36:33.042Z,1007.63
2018-01-31T02:38:26.044Z,1007.54
2018-01-31T02:39:26.081Z,1007.52
2018-01-31T02:41:19.057Z,1007.40
2018-01-31T02:42:19.111Z,1007.39
2018-01-31T02:44:12.109Z,1007.33
2018-01-31T02:45:12.145Z,1007.35
2018-01-31T02:47:05.143Z,1007.28
2018-01-31T02:48:05.183Z,1007.25
2018-01-31T02:49:59.663Z,1007.24
2018-01-31T02:50:59.717Z,1007.21
2018-01-31T02:52:52.713Z,1007.12
2018-01-31T02:53:52.748Z,1007.08
2018-01-31T02:55:45.724Z,1007.01
2018-01-31T02:56:45.778Z,1006.98
2018-01-31T02:58:38.779Z,1006.92
2018-01-31T02:59:38.813Z,1006.91
2018-01-31T03:01:31.789Z,1006.86
2018-01-31T03:02:31.846Z,1006.83
2018-01-31T03:04:24.842Z,1006.78
2018-01-31T03:05:24.874Z,1006.71
2018-01-31T03:07:17.873Z,1006.62
2018-01-31T03:08:17.907Z,1006.61
2018-01-31T03:10:10.885Z,1006.56
2018-01-31T03:11:10.939Z,1006.52
2018-01-31T03:13:03.936Z,1006.49
2018-01-31T03:14:03.971Z,1006.44
2018-01-31T03:15:56.947Z,1006.31
2018-01-31T03:16:57.003Z,1006.27
2018-01-31T03:18:49.999Z,1006.19
2018-01-31T03:19:50.035Z,1006.20
2018-01-31T03:21:43.018Z,1006.13
2018-01-31T03:22:43.067Z,1006.13
2018-01-31T03:24:36.061Z,1006.12
2018-01-31T03:25:36.097Z,1006.11
2018-01-31T03:27:29.093Z,1006.00
2018-01-31T03:28:29.128Z,1005.95
2018-01-31T03:30:22.111Z,1005.93
2018-01-31T03:31:22.168Z,1005.87
2018-01-31T03:33:15.163Z,1005.80
2018-01-31T03:34:15.198Z,1005.76
2018-01-31T03:36:08.174Z,1005.78
2018-01-31T03:37:08.229Z,1005.69
2018-01-31T03:39:01.227Z,1005.64
2018-01-31T03:40:01.264Z,1005.64
2018-01-31T03:41:54.244Z,1005.53
2018-01-31T03:42:54.296Z,1005.55
2018-01-31T03:44:47.295Z,1005.57
2018-01-31T03:45:47.335Z,1005.56
2018-01-31T03:47:40.327Z,1005.45
2018-01-31T03:48:40.362Z,1005.42
2018-01-31T03:50:33.340Z,1005.44
2018-01-31T03:51:33.396Z,1005.43
2018-01-31T03:53:26.393Z,1005.37
2018-01-31T03:54:26.427Z,1005.37
2018-01-31T03:56:19.404Z,1005.25
2018-01-31T03:57:19.458Z,1005.22
2018-01-31T03:59:12.457Z,1005.14
2018-01-31T04:00:12.492Z,1005.21
2018-01-31T04:02:05.470Z,1005.11
2018-01-31T04:03:05.524Z,1005.06
2018-01-31T04:04:58.520Z,1005.05
2018-01-31T04:05:58.555Z,1005.06
2018-01-31T04:07:51.555Z,1005.02
2018-01-31T04:08:51.592Z,1005.09
2018-01-31T04:10:44.575Z,1005.02
2018-01-31T04:11:44.629Z,1004.95
2018-01-31T04:13:37.681Z,1004.92
2018-01-31T04:14:37.661Z,1004.91
2018-01-31T04:16:30.642Z,1004.89
2018-01-31T04:17:30.699Z,1004.86
2018-01-31T04:19:23.702Z,1004.81
2018-01-31T04:20:23.740Z,1004.78
2018-01-31T04:22:16.714Z,1004.72
2018-01-31T04:23:16.768Z,1004.71
2018-01-31T04:25:10.277Z,1004.65
2018-01-31T04:26:10.325Z,1004.64
2018-01-31T04:28:03.306Z,1004.59
2018-01-31T04:29:03.344Z,1004.56
2018-01-31T04:30:56.320Z,1004.51
2018-01-31T04:31:56.376Z,1004.46
2018-01-31T04:33:49.374Z,1004.47
2018-01-31T04:34:49.407Z,1004.46
2018-01-31T04:36:42.386Z,1004.50
2018-01-31T04:37:42.493Z,1004.47
2018-01-31T04:39:36.030Z,1004.41
2018-01-31T04:40:35.982Z,1004.41
2018-01-31T04:42:28.963Z,1004.30
2018-01-31T04:43:29.023Z,1004.25
2018-01-31T04:45:22.031Z,1004.29
2018-01-31T04:46:22.061Z,1004.30
2018-01-31T04:48:15.060Z,1004.24
2018-01-31T04:49:15.093Z,1004.23
2018-01-31T04:51:08.074Z,1004.20
2018-01-31T04:52:08.130Z,1004.11
2018-01-31T04:54:01.130Z,1004.13
2018-01-31T04:55:01.164Z,1004.07
2018-01-31T04:56:54.149Z,1004.04
2018-01-31T04:57:54.206Z,1004.07
2018-01-31T04:59:47.207Z,1003.96
2018-01-31T05:00:47.237Z,1003.93
2018-01-31T05:02:40.218Z,1003.95
2018-01-31T05:03:40.273Z,1003.94
2018-01-31T05:05:33.772Z,1003.92
2018-01-31T05:06:33.810Z,1003.88
2018-01-31T05:08:26.806Z,1003.86
2018-01-31T05:09:26.842Z,1003.82
2018-01-31T05:11:19.821Z,1003.81
2018-01-31T05:12:19.876Z,1003.74
2018-01-31T05:14:12.877Z,1003.70
2018-01-31T05:15:12.913Z,1003.75
2018-01-31T05:17:05.891Z,1003.73
2018-01-31T05:18:05.952Z,1003.71
2018-01-31T05:19:58.946Z,1003.67
2018-01-31T05:20:58.994Z,1003.62
2018-01-31T05:22:51.958Z,1003.59
2018-01-31T05:23:52.016Z,1003.46
2018-01-31T05:25:45.018Z,1003.55
2018-01-31T05:26:45.048Z,1003.47
2018-01-31T05:28:38.048Z,1003.47
2018-01-31T05:29:38.083Z,1003.50
2018-01-31T05:31:31.059Z,1003.42
2018-01-31T05:32:31.117Z,1003.41
2018-01-31T05:34:24.118Z,1003.44
2018-01-31T05:35:24.152Z,1003.39
2018-01-31T05:37:17.135Z,1003.39
2018-01-31T05:38:17.188Z,1003.35
2018-01-31T05:40:10.698Z,1003.34
2018-01-31T05:41:10.740Z,1003.31
2018-01-31T05:43:03.708Z,1003.26
2018-01-31T05:44:03.765Z,1003.25
2018-01-31T05:45:56.778Z,1003.21
2018-01-31T05:46:56.800Z,1003.18
2018-01-31T05:48:49.814Z,1003.15
2018-01-31T05:49:49.848Z,1003.21
2018-01-31T05:51:42.831Z,1003.15
2018-01-31T05:52:42.883Z,1003.09
2018-01-31T05:54:35.899Z,1003.16
2018-01-31T05:55:35.936Z,1003.12
2018-01-31T05:57:28.916Z,1003.09
2018-01-31T05:58:28.974Z,1003.10
2018-01-31T06:00:21.980Z,1003.07
2018-01-31T06:01:22.009Z,1003.00
2018-01-31T06:03:14.989Z,1002.93
2018-01-31T06:04:15.048Z,1002.99
2018-01-31T06:06:08.052Z,1002.90
2018-01-31T06:07:08.090Z,1002.89
2018-01-31T06:09:01.094Z,1002.83
2018-01-31T06:10:01.127Z,1002.85
2018-01-31T06:11:54.105Z,1002.85
2018-01-31T06:12:54.168Z,1002.84
2018-01-31T06:14:47.161Z,1002.81
2018-01-31T06:15:47.196Z,1002.77
2018-01-31T06:17:40.186Z,1002.77
2018-01-31T06:18:40.243Z,1002.71
2018-01-31T06:20:33.244Z,1002.74
2018-01-31T06:21:33.283Z,1002.62
2018-01-31T06:23:26.265Z,1002.65
2018-01-31T06:24:26.318Z,1002.51
2018-01-31T06:26:19.319Z,1002.54
2018-01-31T06:27:19.358Z,1002.56
2018-01-31T06:29:12.359Z,1002.49
2018-01-31T06:30:12.392Z,1002.40
2018-01-31T06:32:05.370Z,1002.33
2018-01-31T06:33:05.428Z,1002.31
2018-01-31T06:34:58.427Z,1002.25
2018-01-31T06:35:58.463Z,1002.25
2018-01-31T06:37:51.440Z,1002.25
2018-01-31T06:38:51.498Z,1002.20
2018-01-31T06:40:44.498Z,1002.12
2018-01-31T06:41:44.532Z,1002.09
2018-01-31T06:43:37.513Z,1002.08
2018-01-31T06:44:37.569Z,1002.04
2018-01-31T06:46:30.569Z,1002.09
2018-01-31T06:47:30.606Z,1001.97
2018-01-31T06:49:23.605Z,1002.08
2018-01-31T06:50:23.641Z,1001.94
2018-01-31T06:52:16.624Z,1001.95
2018-01-31T06:53:16.682Z,1001.85
2018-01-31T06:55:09.682Z,1001.90
2018-01-31T06:56:09.722Z,1001.85
2018-01-31T06:58:02.697Z,1001.91
2018-01-31T06:59:02.753Z,1001.85
2018-01-31T07:00:55.752Z,1001.81
2018-01-31T07:01:55.790Z,1001.79
2018-01-31T07:03:48.772Z,1001.87
2018-01-31T07:04:48.826Z,1001.82
2018-01-31T07:06:41.826Z,1001.80
2018-01-31T07:07:41.861Z,1001.85
2018-01-31T07:09:34.863Z,1001.80
2018-01-31T07:10:34.897Z,1001.74
2018-01-31T07:12:27.881Z,1001.75
2018-01-31T07:13:27.938Z,1001.70
2018-01-31T07:15:20.938Z,1001.66
2018-01-31T07:16:20.974Z,1001.63
2018-01-31T07:18:13.953Z,1001.58
2018-01-31T07:19:14.015Z,1001.53
2018-01-31T07:21:07.013Z,1001.54
2018-01-31T07:22:07.050Z,1001.56
2018-01-31T07:24:00.038Z,1001.55
2018-01-31T07:25:00.093Z,1001.46
2018-01-31T07:26:53.090Z,1001.44
2018-01-31T07:27:53.130Z,1001.41
2018-01-31T07:29:46.130Z,1001.42
2018-01-31T07:30:46.168Z,1001.31
2018-01-31T07:32:39.147Z,1001.29
2018-01-31T07:33:39.202Z,1001.27
2018-01-31T07:35:32.203Z,1001.29
2018-01-31T07:36:32.241Z,1001.22
2018-01-31T07:38:25.221Z,1001.23
2018-01-31T07:39:25.278Z,1001.34
2018-01-31T07:41:18.282Z,1001.28
2018-01-31T07:42:18.320Z,1001.31
2018-01-31T07:44:11.302Z,1001.21
2018-01-31T07:45:11.356Z,1001.24
2018-01-31T07:47:04.357Z,1001.17
2018-01-31T07:48:04.396Z,1001.12
2018-01-31T07:49:57.404Z,1001.06
2018-01-31T07:50:57.442Z,1001.06
2018-01-31T07:52:50.424Z,1001.05
2018-01-31T07:53:50.485Z,1001.07
2018-01-31T07:55:43.480Z,1000.89
2018-01-31T07:56:43.517Z,1000.89
2018-01-31T07:58:36.494Z,1000.88
2018-01-31T07:59:36.556Z,1000.81
2018-01-31T08:01:29.552Z,1000.86
2018-01-31T08:02:29.588Z,1000.83
2018-01-31T08:04:22.569Z,1000.69
2018-01-31T08:05:22.627Z,1000.67
2018-01-31T08:07:15.629Z,1000.81
2018-01-31T08:08:15.665Z,1000.66
2018-01-31T08:10:08.665Z,1000.67
2018-01-31T08:11:08.701Z,1000.63
2018-01-31T08:13:01.684Z,1000.68
2018-01-31T08:14:01.740Z,1000.57
2018-01-31T08:15:54.742Z,1000.60
2018-01-31T08:16:54.778Z,1000.63
2018-01-31T08:18:47.756Z,1000.60
2018-01-31T08:19:47.816Z,1000.61
2018-01-31T08:21:40.820Z,1000.57
2018-01-31T08:22:40.857Z,1000.61
2018-01-31T08:24:33.837Z,1000.51
2018-01-31T08:25:33.896Z,1000.47
2018-01-31T08:27:26.892Z,1000.56
2018-01-31T08:28:26.932Z,1000.47
2018-01-31T08:30:19.932Z,1000.48
2018-01-31T08:31:20.035Z,1000.46
2018-01-31T08:33:12.946Z,1000.42
2018-01-31T08:34:13.004Z,1000.43
2018-01-31T08:36:06.005Z,1000.41
2018-01-31T08:37:06.040Z,1000.39
2018-01-31T08:38:59.021Z,1000.34
2018-01-31T08:39:59.079Z,1000.30
2018-01-31T08:41:52.103Z,1000.19
2018-01-31T08:42:52.120Z,1000.23
2018-01-31T08:44:45.099Z,1000.32
2018-01-31T08:45:45.157Z,1000.19
2018-01-31T08:47:38.158Z,1000.24
2018-01-31T08:48:38.194Z,1000.18
2018-01-31T08:50:31.194Z,1000.03
2018-01-31T08:51:31.231Z,1000.05
2018-01-31T08:53:24.219Z,1000.00
2018-01-31T08:54:24.268Z,1000.03
2018-01-31T08:56:17.273Z,1000.11
2018-01-31T08:57:17.307Z,1000.05
2018-01-31T08:59:10.291Z,1000.11
2018-01-31T09:00:10.348Z,1000.07
2018-01-31T09:02:03.355Z,1000.03
2018-01-31T09:03:03.392Z,1000.07
2018-01-31T09:04:56.381Z,1000.02
2018-01-31T09:05:56.438Z,1000.01
2018-01-31T09:07:49.444Z,1000.02
2018-01-31T09:08:50.447Z,1000.01
2018-01-31T09:10:42.491Z,1000.01
2018-01-31T09:11:42.528Z,1000.02
2018-01-31T09:13:35.506Z,1000.04
2018-01-31T09:14:35.567Z,999.94
2018-01-31T09:16:28.566Z,999.82
2018-01-31T09:17:28.602Z,999.86
2018-01-31T09:19:21.580Z,999.76
2018-01-31T09:20:21.639Z,999.71
2018-01-31T09:22:14.637Z,999.66
2018-01-31T09:23:14.674Z,999.63
2018-01-31T09:25:07.659Z,999.65
2018-01-31T09:26:07.710Z,999.62
2018-01-31T09:28:00.712Z,999.61
2018-01-31T09:29:00.749Z,999.62
2018-01-31T09:30:53.768Z,999.55
2018-01-31T09:31:53.806Z,999.57
2018-01-31T09:33:46.785Z,999.50
2018-01-31T09:34:46.844Z,999.47
2018-01-31T09:36:39.877Z,999.37
2018-01-31T09:37:39.882Z,999.38
2018-01-31T09:39:33.371Z,999.40
2018-01-31T09:40:33.424Z,999.35
2018-01-31T09:42:26.425Z,999.25
2018-01-31T09:43:26.464Z,999.29
2018-01-31T09:45:19.440Z,999.25
2018-01-31T09:46:19.498Z,999.14
2018-01-31T09:48:12.499Z,999.18
2018-01-31T09:49:12.543Z,999.11
2018-01-31T09:51:05.537Z,999.15
2018-01-31T09:52:05.572Z,999.06
2018-01-31T09:53:58.558Z,999.10
2018-01-31T09:54:58.611Z,999.11
2018-01-31T09:56:51.609Z,999.12
2018-01-31T09:57:51.646Z,999.08
2018-01-31T09:59:44.633Z,999.06
2018-01-31T10:00:44.686Z,999.01
2018-01-31T10:02:37.694Z,998.95
2018-01-31T10:03:37.739Z,998.97
2018-01-31T10:05:30.709Z,999.00
2018-01-31T10:06:30.767Z,998.95
2018-01-31T10:08:23.769Z,998.78
2018-01-31T10:09:23.807Z,999.03
2018-01-31T10:11:16.809Z,998.91
2018-01-31T10:12:16.843Z,998.87
2018-01-31T10:14:09.885Z,998.77
2018-01-31T10:15:09.888Z,998.77
2018-01-31T10:17:02.891Z,998.76
2018-01-31T10:18:02.931Z,998.77
2018-01-31T10:19:55.907Z,998.66
2018-01-31T10:20:55.965Z,998.62
2018-01-31T10:22:48.968Z,998.78
2018-01-31T10:23:49.004Z,998.66
2018-01-31T10:25:41.982Z,998.73
2018-01-31T10:26:42.042Z,998.65
2018-01-31T10:28:36.591Z,998.59
2018-01-31T10:29:35.077Z,998.47
2018-01-31T10:31:28.079Z,998.45
2018-01-31T10:32:28.119Z,998.46
2018-01-31T10:34:21.094Z,998.44
2018-01-31T10:35:21.152Z,998.43
2018-01-31T10:37:14.156Z,998.32
2018-01-31T10:38:14.191Z,998.28
2018-01-31T10:40:07.703Z,998.29
2018-01-31T10:41:07.736Z,998.18
2018-01-31T10:43:00.715Z,998.27
2018-01-31T10:44:00.771Z,998.31
2018-01-31T10:45:53.788Z,998.21
2018-01-31T10:46:53.821Z,998.21
2018-01-31T10:48:46.803Z,998.18
2018-01-31T10:49:46.861Z,998.10
2018-01-31T10:51:39.865Z,998.08
2018-01-31T10:52:39.902Z,998.11
2018-01-31T10:57:29.193Z,998.05
2018-01-31T10:58:25.976Z,997.89
2018-01-31T11:00:18.957Z,997.96
2018-01-31T11:01:19.017Z,998.00
2018-01-31T11:03:12.020Z,997.89
2018-01-31T11:04:12.054Z,997.91
2018-01-31T11:06:05.056Z,997.79
2018-01-31T11:07:05.092Z,997.89
2018-01-31T11:08:58.074Z,997.72
2018-01-31T11:09:58.131Z,997.70
2018-01-31T11:11:51.132Z,997.76
2018-01-31T11:12:51.168Z,997.67
2018-01-31T11:14:44.150Z,997.65
2018-01-31T11:15:44.207Z,997.61
2018-01-31T11:17:37.217Z,997.49
2018-01-31T11:18:37.247Z,997.50
2018-01-31T11:20:30.228Z,997.41
2018-01-31T11:21:30.288Z,997.42
2018-01-31T11:23:23.290Z,997.41
2018-01-31T11:24:23.325Z,997.32
2018-01-31T11:26:16.306Z,997.23
2018-01-31T11:27:16.365Z,997.04
2018-01-31T11:29:09.368Z,997.17
2018-01-31T11:30:09.404Z,997.20
2018-01-31T11:32:02.381Z,997.08
2018-01-31T11:33:02.442Z,997.12
2018-01-31T11:34:55.443Z,997.13
2018-01-31T11:35:55.478Z,997.05
2018-01-31T11:37:48.479Z,997.15
2018-01-31T11:38:48.514Z,997.14
2018-01-31T11:40:41.494Z,997.03
2018-01-31T11:41:41.553Z,997.01
2018-01-31T11:43:34.554Z,996.99
2018-01-31T11:44:34.588Z,996.90
2018-01-31T11:46:27.576Z,996.92
2018-01-31T11:47:27.631Z,996.88
2018-01-31T11:49:20.635Z,996.80
2018-01-31T11:50:20.672Z,996.77
2018-01-31T11:52:13.665Z,996.71
2018-01-31T11:53:13.723Z,996.78
2018-01-31T11:55:06.729Z,996.67
2018-01-31T11:56:06.761Z,996.66
2018-01-31T11:57:59.748Z,996.64
2018-01-31T11:58:59.800Z,996.74
2018-01-31T12:00:52.813Z,996.82
2018-01-31T12:01:52.838Z,996.78
2018-01-31T12:03:45.850Z,996.74
2018-01-31T12:04:45.949Z,996.65
2018-01-31T12:06:38.857Z,996.68
2018-01-31T12:07:38.915Z,996.58
2018-01-31T12:09:31.917Z,996.49
2018-01-31T12:10:31.950Z,996.46
2018-01-31T12:12:24.935Z,996.55
2018-01-31T12:13:24.989Z,996.51
2018-01-31T12:15:17.992Z,996.71
2018-01-31T12:16:18.032Z,996.83
2018-01-31T12:18:11.006Z,996.90
2018-01-31T12:19:11.063Z,996.90
2018-01-31T12:21:04.070Z,996.92
2018-01-31T12:22:04.103Z,996.85
2018-01-31T12:23:57.085Z,996.84
2018-01-31T12:24:57.147Z,996.80
2018-01-31T12:26:50.145Z,996.74
2018-01-31T12:27:50.179Z,996.70
2018-01-31T12:29:43.158Z,996.72
2018-01-31T12:30:43.215Z,996.64
2018-01-31T12:32:36.216Z,996.67
2018-01-31T12:33:36.252Z,996.68
2018-01-31T12:35:29.260Z,996.68
2018-01-31T12:36:29.290Z,996.60
2018-01-31T12:38:22.271Z,996.62
2018-01-31T12:39:22.327Z,996.55
2018-01-31T12:41:15.332Z,996.54
2018-01-31T12:42:15.365Z,996.50
2018-01-31T12:44:08.342Z,996.54
2018-01-31T12:45:08.400Z,996.56
2018-01-31T12:47:01.399Z,996.62
2018-01-31T12:48:01.435Z,996.76
2018-01-31T12:49:54.413Z,996.60
2018-01-31T12:50:54.470Z,996.62
2018-01-31T12:52:47.475Z,996.56
2018-01-31T12:53:47.510Z,996.58
2018-01-31T12:55:40.510Z,996.52
2018-01-31T12:56:40.549Z,996.54
2018-01-31T12:58:33.549Z,996.43
2018-01-31T12:59:33.585Z,996.45
2018-01-31T13:01:26.588Z,996.38
2018-01-31T13:02:26.840Z,996.46
2018-01-31T13:04:19.610Z,996.25
2018-01-31T13:05:19.689Z,996.26
2018-01-31T13:07:12.657Z,996.23
2018-01-31T13:08:12.692Z,996.20
2018-01-31T13:10:05.678Z,996.14
2018-01-31T13:11:05.730Z,996.06
2018-01-31T13:12:58.730Z,996.09
2018-01-31T13:13:58.764Z,996.00
2018-01-31T13:15:51.743Z,996.00
2018-01-31T13:16:51.799Z,996.02
2018-01-31T13:18:44.801Z,995.92
2018-01-31T13:19:44.839Z,995.92
2018-01-31T13:21:37.818Z,995.81
2018-01-31T13:22:37.874Z,995.75
2018-01-31T13:24:30.878Z,995.73
2018-01-31T13:25:30.912Z,995.70
2018-01-31T13:27:23.891Z,995.67
2018-01-31T13:28:23.946Z,995.64
2018-01-31T13:30:16.947Z,995.63
2018-01-31T13:31:16.983Z,995.63
2018-01-31T13:33:09.999Z,995.54
2018-01-31T13:34:10.047Z,995.43
2018-01-31T13:36:02.994Z,995.44
2018-01-31T13:37:03.055Z,995.42
2018-01-31T13:38:56.055Z,995.43
2018-01-31T13:39:56.091Z,995.39
2018-01-31T13:41:49.068Z,995.35
2018-01-31T13:42:49.124Z,995.38
2018-01-31T13:44:42.125Z,995.32
2018-01-31T13:45:42.165Z,995.29
2018-01-31T13:47:35.147Z,995.14
2018-01-31T13:48:35.204Z,995.16
2018-01-31T13:50:28.202Z,995.13
2018-01-31T13:51:28.237Z,995.12
2018-01-31T13:53:21.215Z,995.02
2018-01-31T13:54:21.272Z,994.94
2018-01-31T13:56:14.272Z,994.97
2018-01-31T13:57:14.309Z,995.01
2018-01-31T13:59:07.288Z,995.00
2018-01-31T14:00:07.345Z,994.97
2018-01-31T14:02:00.347Z,994.93
2018-01-31T14:03:00.382Z,994.89
2018-01-31T14:04:53.388Z,994.87
2018-01-31T14:05:53.417Z,994.85
2018-01-31T14:07:46.401Z,994.90
2018-01-31T14:08:46.454Z,994.92
2018-01-31T14:10:39.456Z,994.88
2018-01-31T14:11:39.488Z,994.90
2018-01-31T14:13:32.466Z,994.91
2018-01-31T14:14:32.525Z,994.84
2018-01-31T14:16:25.531Z,994.82
2018-01-31T14:17:25.557Z,994.81
2018-01-31T14:19:18.542Z,994.76
2018-01-31T14:20:18.595Z,994.71
2018-01-31T14:22:11.596Z,994.70
2018-01-31T14:23:11.634Z,994.70
2018-01-31T14:25:04.610Z,994.62
2018-01-31T14:26:04.667Z,994.59
2018-01-31T14:27:57.671Z,994.62
2018-01-31T14:28:57.703Z,994.55
2018-01-31T14:30:50.681Z,994.58
2018-01-31T14:31:50.740Z,994.64
2018-01-31T14:33:43.743Z,994.62
2018-01-31T14:34:44.750Z,994.58
2018-01-31T14:36:36.777Z,994.61
2018-01-31T14:37:36.817Z,994.56
2018-01-31T14:39:30.291Z,994.50
2018-01-31T14:40:30.350Z,994.61
2018-01-31T14:42:23.358Z,994.58
2018-01-31T14:43:23.395Z,994.62
2018-01-31T14:45:16.379Z,994.57
2018-01-31T14:46:16.431Z,994.65
2018-01-31T14:48:09.436Z,994.53
2018-01-31T14:49:09.469Z,994.44
2018-01-31T14:51:02.449Z,994.33
2018-01-31T14:52:02.545Z,994.39
2018-01-31T14:53:55.516Z,994.36
2018-01-31T14:54:55.553Z,994.39
2018-01-31T14:56:48.533Z,994.26
2018-01-31T14:57:48.589Z,994.16
2018-01-31T14:59:41.596Z,994.08
2018-01-31T15:00:41.631Z,994.05
2018-01-31T15:02:34.614Z,993.86
2018-01-31T15:03:34.672Z,993.86
2018-01-31T15:05:28.194Z,993.96
2018-01-31T15:06:28.211Z,993.84
2018-01-31T15:08:21.213Z,993.89
2018-01-31T15:09:21.247Z,993.85
2018-01-31T15:11:14.225Z,993.89
2018-01-31T15:12:14.282Z,993.80
2018-01-31T15:14:07.297Z,993.80
2018-01-31T15:15:07.332Z,993.75
2018-01-31T15:17:00.305Z,993.71
2018-01-31T15:18:00.372Z,993.77
2018-01-31T15:19:53.877Z,993.77
2018-01-31T15:20:53.909Z,993.72
2018-01-31T15:22:46.891Z,993.68
2018-01-31T15:23:46.946Z,993.64
2018-01-31T15:25:39.943Z,993.70
2018-01-31T15:26:39.984Z,993.67
2018-01-31T15:28:33.010Z,993.63
2018-01-31T15:29:33.034Z,993.71
2018-01-31T15:31:26.001Z,993.70
2018-01-31T15:32:26.184Z,993.71
2018-01-31T15:34:19.112Z,993.71
2018-01-31T15:35:19.120Z,993.75
2018-01-31T15:37:12.076Z,993.75
2018-01-31T15:38:12.131Z,993.74
2018-01-31T15:40:05.155Z,993.72
2018-01-31T15:41:05.167Z,993.73
2018-01-31T15:42:58.161Z,993.74
2018-01-31T15:43:58.211Z,993.66
2018-01-31T15:45:51.211Z,993.64
2018-01-31T15:46:51.247Z,993.63
2018-01-31T15:48:44.232Z,993.60
2018-01-31T15:49:44.287Z,993.62
2018-01-31T15:51:37.290Z,993.62
2018-01-31T15:52:37.323Z,993.55
2018-01-31T15:54:30.325Z,993.61
2018-01-31T15:55:30.358Z,993.59
2018-01-31T15:57:23.337Z,993.57
2018-01-31T15:58:23.393Z,993.59
2018-01-31T16:00:16.394Z,993.52
2018-01-31T16:01:16.428Z,993.54
2018-01-31T16:03:09.408Z,993.45
2018-01-31T16:04:09.465Z,993.53
2018-01-31T16:06:02.476Z,993.53
2018-01-31T16:07:02.505Z,993.48
2018-01-31T16:08:55.491Z,993.44
2018-01-31T16:09:55.544Z,993.42
2018-01-31T16:11:48.547Z,993.43
2018-01-31T16:12:48.612Z,993.39
2018-01-31T16:14:41.585Z,993.40
2018-01-31T16:15:41.619Z,993.37
2018-01-31T16:17:34.605Z,993.34
2018-01-31T16:18:34.657Z,993.34
2018-01-31T16:20:27.672Z,993.30
2018-01-31T16:21:27.691Z,993.25
2018-01-31T16:23:20.670Z,993.23
2018-01-31T16:24:20.733Z,993.18
2018-01-31T16:26:13.728Z,993.23
2018-01-31T16:27:13.762Z,993.19
2018-01-31T16:29:06.741Z,993.17
2018-01-31T16:30:06.799Z,993.21
2018-01-31T16:32:00.311Z,993.21
2018-01-31T16:33:00.345Z,993.21
2018-01-31T16:34:53.352Z,993.31
2018-01-31T16:35:53.411Z,993.40
2018-01-31T16:37:46.413Z,993.38
2018-01-31T16:38:46.441Z,993.45
2018-01-31T16:40:39.462Z,993.58
2018-01-31T16:41:39.477Z,993.63
2018-01-31T16:43:32.472Z,993.68
2018-01-31T16:44:32.521Z,993.66
2018-01-31T16:46:25.524Z,993.69
2018-01-31T16:47:25.561Z,993.62
2018-01-31T16:49:18.550Z,993.68
2018-01-31T16:50:18.639Z,993.75
2018-01-31T16:52:11.614Z,993.68
2018-01-31T16:53:11.649Z,993.72
2018-01-31T16:55:04.634Z,993.74
2018-01-31T16:56:04.694Z,993.75
2018-01-31T16:57:57.688Z,993.78
2018-01-31T16:58:57.721Z,993.80
2018-01-31T17:00:50.706Z,993.77
2018-01-31T17:01:50.757Z,993.69
2018-01-31T17:03:43.762Z,993.67
2018-01-31T17:04:43.798Z,993.69
2018-01-31T17:06:36.803Z,993.64
2018-01-31T17:07:36.834Z,993.65
2018-01-31T17:09:29.810Z,993.71
2018-01-31T17:10:29.891Z,993.73
2018-01-31T17:12:22.864Z,993.74
2018-01-31T17:13:22.899Z,993.80
2018-01-31T17:15:15.878Z,993.85
2018-01-31T17:16:16.092Z,993.85
2018-01-31T17:18:08.937Z,993.79
2018-01-31T17:19:09.110Z,993.75
2018-01-31T17:21:01.957Z,993.71
2018-01-31T17:22:02.010Z,993.70
2018-01-31T17:23:55.015Z,993.73
2018-01-31T17:24:55.046Z,993.79
2018-01-31T17:26:48.017Z,993.78
2018-01-31T17:27:48.076Z,993.79
2018-01-31T17:29:41.118Z,993.74
2018-01-31T17:30:41.120Z,993.66
2018-01-31T17:32:34.131Z,993.61
2018-01-31T17:33:34.177Z,993.59
2018-01-31T17:35:27.143Z,993.58
2018-01-31T17:36:27.192Z,993.55
2018-01-31T17:38:20.193Z,993.53
2018-01-31T17:39:20.228Z,993.50
2018-01-31T17:41:13.204Z,993.44
2018-01-31T17:42:13.264Z,993.38
2018-01-31T17:44:06.268Z,993.32
2018-01-31T17:45:06.304Z,993.31
2018-01-31T17:46:59.280Z,993.40
2018-01-31T17:47:59.338Z,993.34
2018-01-31T17:49:52.339Z,993.22
2018-01-31T17:50:52.374Z,993.24
2018-01-31T17:52:45.354Z,993.18
2018-01-31T17:53:45.407Z,993.21
2018-01-31T17:55:38.408Z,993.35
2018-01-31T17:56:38.443Z,993.31
2018-01-31T17:58:31.426Z,993.21
2018-01-31T17:59:31.477Z,993.21
2018-01-31T18:01:24.476Z,993.09
2018-01-31T18:02:24.512Z,993.01
2018-01-31T18:04:17.512Z,993.02
2018-01-31T18:05:17.546Z,992.99
2018-01-31T18:07:10.545Z,992.97
2018-01-31T18:08:10.603Z,992.96
2018-01-31T18:10:03.578Z,992.97
2018-01-31T18:11:03.612Z,993.03
2018-01-31T18:12:56.598Z,993.03
2018-01-31T18:13:56.655Z,993.10
2018-01-31T18:15:49.657Z,993.14
2018-01-31T18:16:49.697Z,993.21
2018-01-31T18:18:42.677Z,993.27
2018-01-31T18:19:42.745Z,993.34
2018-01-31T18:21:35.735Z,993.34
2018-01-31T18:22:35.770Z,993.34
2018-01-31T18:24:28.756Z,993.29
2018-01-31T18:25:28.807Z,993.19
2018-01-31T18:27:21.836Z,993.08
2018-01-31T18:28:21.859Z,993.08
2018-01-31T18:30:14.861Z,993.13
2018-01-31T18:31:14.894Z,993.10
2018-01-31T18:33:08.075Z,993.15
2018-01-31T18:34:07.932Z,993.13
2018-01-31T18:36:00.927Z,993.20
2018-01-31T18:37:00.963Z,993.17
2018-01-31T18:38:53.941Z,993.23
2018-01-31T18:39:53.997Z,993.24
2018-01-31T18:41:47.031Z,993.17
2018-01-31T18:42:47.038Z,993.19
2018-01-31T18:44:40.016Z,993.23
2018-01-31T18:45:40.082Z,993.27
2018-01-31T18:47:33.107Z,993.41
2018-01-31T18:48:33.118Z,993.44
2018-01-31T18:50:26.096Z,993.49
2018-01-31T18:51:26.195Z,993.44
2018-01-31T18:53:19.145Z,993.41
2018-01-31T18:54:19.180Z,993.42
2018-01-31T18:56:12.168Z,993.35
2018-01-31T18:57:12.220Z,993.28
2018-01-31T18:59:05.227Z,993.22
2018-01-31T19:00:05.263Z,993.21
2018-01-31T19:01:58.249Z,993.25
2018-01-31T19:02:58.354Z,993.21
2018-01-31T19:04:51.308Z,993.17
2018-01-31T19:05:51.344Z,993.15
2018-01-31T19:07:44.360Z,993.17
2018-01-31T19:08:44.407Z,993.16
2018-01-31T19:10:37.463Z,993.14
2018-01-31T19:11:37.427Z,993.14
2018-01-31T19:13:30.426Z,993.11
2018-01-31T19:14:30.459Z,993.02
2018-01-31T19:16:23.443Z,993.03
2018-01-31T19:17:23.498Z,993.03
2018-01-31T19:19:16.501Z,993.04
2018-01-31T19:20:16.564Z,993.01
2018-01-31T19:22:09.523Z,993.02
2018-01-31T19:23:09.629Z,993.05
2018-01-31T19:25:02.583Z,993.10
2018-01-31T19:26:02.615Z,993.10
2018-01-31T19:27:55.591Z,993.07
2018-01-31T19:28:55.648Z,993.06
2018-01-31T19:30:48.671Z,993.10
2018-01-31T19:31:48.691Z,993.15
2018-01-31T19:33:41.701Z,993.15
2018-01-31T19:34:41.723Z,993.20
2018-01-31T19:36:34.702Z,993.09
2018-01-31T19:37:34.754Z,993.12
2018-01-31T19:39:27.764Z,993.11